Managua, Nicaragua
Current Conditions -  °F | °C
As of 3:00 PM on Saturday 25 Oct 2014 (Local Time) from MNMG Reporting Station
Scattered Clouds Scattered Clouds  
Wind Chill: 91°   Ceiling: Unl
Heat Index: 102°   Visibility: 6mi
Dew Point: 75°   Wind: 12mph
Humidity: 59%   Direction: 260°W
Pressure: 29.74"   Gusts: NA
Location:  12.15°N, 86.27°W
Report Text: MNMG 252100Z 26010KT 9000 FEW020CB SCT300 33/24 Q1007 A2974 CB/N/NE/E/NW/SE/S 1CU022 1AC070 9KM POR HUMO TEMPO 6000 TSRA/VCRA
Loading
Personal Weather Stations






























Interactive Weather Map
Tropical Storm Tracking
New forecast layout! Learn more

10-Day Weather Forecast

Advertisements
Track Severe Weather on mobile